Kyokuho Maru No.15 — JI3715 — position and weather

sailwx.info

Track history (hours):
 
Tides and Currents Weather Stations Pressure Air Temp Water Temp Dewpoint Dewpoint Depression Visibility Wind Speed Wind Dir Waves Ship Positions

Kyokuho Maru No.15

Last reported at 2016-Apr-28 05:27 UTC. Time now 2016-May-01 04:13 UTC.
Position N 34°37' E 134°57'.

Length 63 m; draft 4 m.

Type: Tanker. MMSI: 431301714.

Date/timePositionNaut miles runAvg speedWind from/ knotsBaromVisibWave heightAir tempDewpointWater temp
2016-Apr-28 05:27N 34°37' E 134°57'1010.8
2016-Apr-28 04:34N 34°37' E 135°09'1111.3
2016-Apr-28 03:33N 34°40' E 135°22'2 2.4
2016-Apr-28 02:34N 34°40' E 135°25'3 2.7
2016-Apr-28 01:33N 34°39' E 135°22'2 2.1
2016-Apr-28 00:29N 34°39' E 135°19'1 1.2
2016-Apr-27 23:31N 34°39' E 135°18'0 0.0
2016-Apr-27 22:28N 34°39' E 135°18'0 0.0
2016-Apr-27 21:33N 34°39' E 135°18'0 0.0
2016-Apr-27 20:31N 34°39' E 135°18'0 0.0
2016-Apr-27 19:33N 34°39' E 135°18'0 0.0
2016-Apr-27 18:34N 34°39' E 135°18'0 0.4
2016-Apr-27 17:33N 34°39' E 135°17'4 3.3
2016-Apr-27 16:26N 34°39' E 135°22'0 0.0
2016-Apr-27 15:33N 34°39' E 135°22'0 0.0
2016-Apr-27 14:33N 34°39' E 135°22'0 0.0
2016-Apr-27 13:34N 34°39' E 135°22'0 0.0
2016-Apr-27 12:33N 34°39' E 135°22'0 0.0
2016-Apr-27 11:34N 34°39' E 135°22'0 0.0
2016-Apr-27 10:34N 34°39' E 135°22'0 0.0
2016-Apr-27 09:34N 34°39' E 135°22'0 0.0
2016-Apr-27 08:34N 34°39' E 135°22'0 0.0
2016-Apr-27 07:34N 34°39' E 135°22'0 0.0
2016-Apr-27 06:34N 34°39' E 135°22'0 0.0
2016-Apr-27 05:34N 34°39' E 135°22'0 0.0
2016-Apr-27 04:34N 34°39' E 135°22'0 0.0
2016-Apr-27 03:34N 34°39' E 135°22'6 2.4
2016-Apr-27 01:09N 34°38' E 135°29'5 7.7
2016-Apr-27 00:34N 34°38' E 135°23'1212.0
2016-Apr-26 23:34N 34°29' E 135°14'1211.9
2016-Apr-26 22:33N 34°19' E 135°04'1212.0
2016-Apr-26 21:34N 34°07' E 135°03'180 5.7
2016-Apr-25 14:12N 34°35' E 138°38'6110.4
2016-Apr-25 08:23N 35°07' E 139°41'910.6
2016-Apr-25 07:33N 35°15' E 139°46'10 9.7
2016-Apr-25 06:33N 35°24' E 139°43'1110.8
2016-Apr-25 05:33N 35°30' E 139°54'8 8.2
2016-Apr-25 04:33N 35°32' E 140°04'0 0.0
2016-Apr-25 03:33N 35°32' E 140°04'0 0.0
2016-Apr-25 02:34N 35°32' E 140°04'0 0.0
2016-Apr-25 01:33N 35°32' E 140°04'0 0.0
2016-Apr-25 00:33N 35°32' E 140°04'1 0.8
2016-Apr-24 23:34N 35°32' E 140°03'5 4.5
2016-Apr-24 22:31N 35°36' E 140°06'0 0.0
2016-Apr-24 21:31N 35°36' E 140°06'0 0.0
2016-Apr-24 20:28N 35°36' E 140°06'0 0.0
2016-Apr-24 19:28N 35°36' E 140°06'0 0.0
2016-Apr-24 18:28N 35°36' E 140°06'0 0.0
2016-Apr-24 17:25N 35°36' E 140°06'0 0.0
2016-Apr-24 16:31N 35°36' E 140°06'0 0.0
2016-Apr-24 15:25N 35°36' E 140°06'0 0.0
2016-Apr-24 14:31N 35°36' E 140°06'0 0.0
2016-Apr-24 13:31N 35°36' E 140°06'0 0.0
2016-Apr-24 12:28N 35°36' E 140°06'0 0.0
2016-Apr-24 11:33N 35°36' E 140°06'0 0.0
2016-Apr-24 10:33N 35°36' E 140°06'0 0.0
2016-Apr-24 09:33N 35°36' E 140°06'0 0.0
2016-Apr-24 08:33N 35°36' E 140°06'0 0.0
2016-Apr-24 07:33N 35°36' E 140°06'0 0.0
2016-Apr-24 06:33N 35°36' E 140°06'0 0.0
2016-Apr-24 05:33N 35°36' E 140°06'0 0.0
2016-Apr-24 04:34N 35°36' E 140°06'1110.8
2016-Apr-24 03:33N 35°29' E 139°56'3 3.0
2016-Apr-24 02:31N 35°27' E 139°58'0 0.0
2016-Apr-24 01:34N 35°27' E 139°58'0 0.0
2016-Apr-24 00:34N 35°27' E 139°58'0 0.0
2016-Apr-23 23:33N 35°27' E 139°58'3 3.3
2016-Apr-23 22:31N 35°29' E 139°55'0 0.0
2016-Apr-23 21:33N 35°29' E 139°55'0 0.1
2016-Apr-23 20:33N 35°29' E 139°55'0 0.0
2016-Apr-23 19:33N 35°29' E 139°55'0 0.1
2016-Apr-23 18:33N 35°29' E 139°55'0 0.0
2016-Apr-23 17:33N 35°29' E 139°55'0 0.0
2016-Apr-23 16:33N 35°29' E 139°55'0 0.0
2016-Apr-23 15:33N 35°29' E 139°55'0 0.1
2016-Apr-23 14:33N 35°29' E 139°55'0 0.0
2016-Apr-23 13:33N 35°29' E 139°55'0 0.0
2016-Apr-23 12:33N 35°29' E 139°55'0 0.0
2016-Apr-23 11:33N 35°29' E 139°55'0 0.0
2016-Apr-23 10:33N 35°29' E 139°55'0 0.0
2016-Apr-23 09:33N 35°29' E 139°55'0 0.0
2016-Apr-23 08:33N 35°29' E 139°55'3 2.6
2016-Apr-23 07:33N 35°28' E 139°52'1111.3
2016-Apr-23 06:34N 35°19' E 139°44'1110.8
2016-Apr-23 05:33N 35°08' E 139°46'  
2016-Apr-19 18:05N 34°04' E 134°44'36 3.3
2016-Apr-19 07:05N 34°40' E 134°44'  
Track history (hours):
 
Tides and Currents Weather Stations Pressure Air Temp Water Temp Dewpoint Dewpoint Depression Visibility Wind Speed Wind Dir Waves Ship Positions

Kyokuho Maru No.15

Last reported at 2016-Apr-28 05:27 UTC. Time now 2016-May-01 04:13 UTC.
Position N 34°37' E 134°57'.

Length 63 m; draft 4 m.

Type: Tanker. MMSI: 431301714.

Date/timePositionNaut miles runAvg speedWind from/ knotsBaromVisibWave heightAir tempDewpointWater temp
2016-Apr-28 05:27N 34°37' E 134°57'1010.8
2016-Apr-28 04:34N 34°37' E 135°09'1111.3
2016-Apr-28 03:33N 34°40' E 135°22'2 2.4
2016-Apr-28 02:34N 34°40' E 135°25'3 2.7
2016-Apr-28 01:33N 34°39' E 135°22'2 2.1
2016-Apr-28 00:29N 34°39' E 135°19'1 1.2
2016-Apr-27 23:31N 34°39' E 135°18'0 0.0
2016-Apr-27 22:28N 34°39' E 135°18'0 0.0
2016-Apr-27 21:33N 34°39' E 135°18'0 0.0
2016-Apr-27 20:31N 34°39' E 135°18'0 0.0
2016-Apr-27 19:33N 34°39' E 135°18'0 0.0
2016-Apr-27 18:34N 34°39' E 135°18'0 0.4
2016-Apr-27 17:33N 34°39' E 135°17'4 3.3
2016-Apr-27 16:26N 34°39' E 135°22'0 0.0
2016-Apr-27 15:33N 34°39' E 135°22'0 0.0
2016-Apr-27 14:33N 34°39' E 135°22'0 0.0
2016-Apr-27 13:34N 34°39' E 135°22'0 0.0
2016-Apr-27 12:33N 34°39' E 135°22'0 0.0
2016-Apr-27 11:34N 34°39' E 135°22'0 0.0
2016-Apr-27 10:34N 34°39' E 135°22'0 0.0
2016-Apr-27 09:34N 34°39' E 135°22'0 0.0
2016-Apr-27 08:34N 34°39' E 135°22'0 0.0
2016-Apr-27 07:34N 34°39' E 135°22'0 0.0
2016-Apr-27 06:34N 34°39' E 135°22'0 0.0
2016-Apr-27 05:34N 34°39' E 135°22'0 0.0
2016-Apr-27 04:34N 34°39' E 135°22'0 0.0
2016-Apr-27 03:34N 34°39' E 135°22'6 2.4
2016-Apr-27 01:09N 34°38' E 135°29'5 7.7
2016-Apr-27 00:34N 34°38' E 135°23'1212.0
2016-Apr-26 23:34N 34°29' E 135°14'1211.9
2016-Apr-26 22:33N 34°19' E 135°04'1212.0
2016-Apr-26 21:34N 34°07' E 135°03'180 5.7
2016-Apr-25 14:12N 34°35' E 138°38'6110.4
2016-Apr-25 08:23N 35°07' E 139°41'910.6
2016-Apr-25 07:33N 35°15' E 139°46'10 9.7
2016-Apr-25 06:33N 35°24' E 139°43'1110.8
2016-Apr-25 05:33N 35°30' E 139°54'8 8.2
2016-Apr-25 04:33N 35°32' E 140°04'0 0.0
2016-Apr-25 03:33N 35°32' E 140°04'0 0.0
2016-Apr-25 02:34N 35°32' E 140°04'0 0.0
2016-Apr-25 01:33N 35°32' E 140°04'0 0.0
2016-Apr-25 00:33N 35°32' E 140°04'1 0.8
2016-Apr-24 23:34N 35°32' E 140°03'5 4.5
2016-Apr-24 22:31N 35°36' E 140°06'0 0.0
2016-Apr-24 21:31N 35°36' E 140°06'0 0.0
2016-Apr-24 20:28N 35°36' E 140°06'0 0.0
2016-Apr-24 19:28N 35°36' E 140°06'0 0.0
2016-Apr-24 18:28N 35°36' E 140°06'0 0.0
2016-Apr-24 17:25N 35°36' E 140°06'0 0.0
2016-Apr-24 16:31N 35°36' E 140°06'0 0.0
2016-Apr-24 15:25N 35°36' E 140°06'0 0.0
2016-Apr-24 14:31N 35°36' E 140°06'0 0.0
2016-Apr-24 13:31N 35°36' E 140°06'0 0.0
2016-Apr-24 12:28N 35°36' E 140°06'0 0.0
2016-Apr-24 11:33N 35°36' E 140°06'0 0.0
2016-Apr-24 10:33N 35°36' E 140°06'0 0.0
2016-Apr-24 09:33N 35°36' E 140°06'0 0.0
2016-Apr-24 08:33N 35°36' E 140°06'0 0.0
2016-Apr-24 07:33N 35°36' E 140°06'0 0.0
2016-Apr-24 06:33N 35°36' E 140°06'0 0.0
2016-Apr-24 05:33N 35°36' E 140°06'0 0.0
2016-Apr-24 04:34N 35°36' E 140°06'1110.8
2016-Apr-24 03:33N 35°29' E 139°56'3 3.0
2016-Apr-24 02:31N 35°27' E 139°58'0 0.0
2016-Apr-24 01:34N 35°27' E 139°58'0 0.0
2016-Apr-24 00:34N 35°27' E 139°58'0 0.0
2016-Apr-23 23:33N 35°27' E 139°58'3 3.3
2016-Apr-23 22:31N 35°29' E 139°55'0 0.0
2016-Apr-23 21:33N 35°29' E 139°55'0 0.1
2016-Apr-23 20:33N 35°29' E 139°55'0 0.0
2016-Apr-23 19:33N 35°29' E 139°55'0 0.1
2016-Apr-23 18:33N 35°29' E 139°55'0 0.0
2016-Apr-23 17:33N 35°29' E 139°55'0 0.0
2016-Apr-23 16:33N 35°29' E 139°55'0 0.0
2016-Apr-23 15:33N 35°29' E 139°55'0 0.1
2016-Apr-23 14:33N 35°29' E 139°55'0 0.0
2016-Apr-23 13:33N 35°29' E 139°55'0 0.0
2016-Apr-23 12:33N 35°29' E 139°55'0 0.0
2016-Apr-23 11:33N 35°29' E 139°55'0 0.0
2016-Apr-23 10:33N 35°29' E 139°55'0 0.0
2016-Apr-23 09:33N 35°29' E 139°55'0 0.0
2016-Apr-23 08:33N 35°29' E 139°55'3 2.6
2016-Apr-23 07:33N 35°28' E 139°52'1111.3
2016-Apr-23 06:34N 35°19' E 139°44'1110.8
2016-Apr-23 05:33N 35°08' E 139°46'  
2016-Apr-19 18:05N 34°04' E 134°44'36 3.3
2016-Apr-19 07:05N 34°40' E 134°44'  

Dump ship's entire track history